sensor_id;sensor_type;location;lat;lon;timestamp;pressure;altitude;pressure_sealevel;temperature;humidity
3780;BME280;1905;52.482;9.802;2022-12-29T00:00:10;99837.28;;;9.16;94.44
3780;BME280;1905;52.482;9.802;2022-12-29T00:02:38;99829.31;;;9.18;94.33
3780;BME280;1905;52.482;9.802;2022-12-29T00:05:06;99823.03;;;9.20;94.02
3780;BME280;1905;52.482;9.802;2022-12-29T00:07:34;99816.91;;;9.20;93.81
3780;BME280;1905;52.482;9.802;2022-12-29T00:10:02;99822.31;;;9.17;94.09
3780;BME280;1905;52.482;9.802;2022-12-29T00:12:31;99817.75;;;9.20;93.83
3780;BME280;1905;52.482;9.802;2022-12-29T00:15:12;99826.44;;;9.22;94.20
3780;BME280;1905;52.482;9.802;2022-12-29T00:17:58;99818.47;;;9.24;94.10
3780;BME280;1905;52.482;9.802;2022-12-29T00:20:25;99813.88;;;9.27;94.36
3780;BME280;1905;52.482;9.802;2022-12-29T00:23:10;99807.75;;;9.27;93.82
3780;BME280;1905;52.482;9.802;2022-12-29T00:25:58;99797.03;;;9.30;93.53
3780;BME280;1905;52.482;9.802;2022-12-29T00:28:44;99801.41;;;9.31;92.92
3780;BME280;1905;52.482;9.802;2022-12-29T00:31:30;99803.88;;;9.34;93.67
3780;BME280;1905;52.482;9.802;2022-12-29T00:34:15;99801.06;;;9.37;93.73
3780;BME280;1905;52.482;9.802;2022-12-29T00:37:01;99795.88;;;9.35;93.80
3780;BME280;1905;52.482;9.802;2022-12-29T00:39:29;99800.06;;;9.39;93.11
3780;BME280;1905;52.482;9.802;2022-12-29T00:42:14;99791.28;;;9.39;93.49
3780;BME280;1905;52.482;9.802;2022-12-29T00:45:00;99787.59;;;9.43;93.17
3780;BME280;1905;52.482;9.802;2022-12-29T00:47:28;99794.69;;;9.41;93.75
3780;BME280;1905;52.482;9.802;2022-12-29T00:49:56;99798.13;;;9.43;93.69
3780;BME280;1905;52.482;9.802;2022-12-29T00:52:22;99794.38;;;9.47;92.74
3780;BME280;1905;52.482;9.802;2022-12-29T00:54:50;99797.78;;;9.49;93.69
3780;BME280;1905;52.482;9.802;2022-12-29T00:57:18;99785.38;;;9.51;92.97
3780;BME280;1905;52.482;9.802;2022-12-29T00:59:45;99784.44;;;9.52;93.13
3780;BME280;1905;52.482;9.802;2022-12-29T01:02:16;99779.94;;;9.54;92.97
3780;BME280;1905;52.482;9.802;2022-12-29T01:04:45;99767.53;;;9.56;93.56
3780;BME280;1905;52.482;9.802;2022-12-29T01:07:15;99770.94;;;9.58;92.44
3780;BME280;1905;52.482;9.802;2022-12-29T01:09:44;99758.84;;;9.54;93.47
3780;BME280;1905;52.482;9.802;2022-12-29T01:12:29;99763.13;;;9.56;92.53
3780;BME280;1905;52.482;9.802;2022-12-29T01:15:12;99754.94;;;9.61;92.87
3780;BME280;1905;52.482;9.802;2022-12-29T01:17:42;99748.72;;;9.62;93.20
3780;BME280;1905;52.482;9.802;2022-12-29T01:20:10;99738.81;;;9.67;92.61
3780;BME280;1905;52.482;9.802;2022-12-29T01:22:38;99737.09;;;9.66;92.54
3780;BME280;1905;52.482;9.802;2022-12-29T01:25:06;99732.69;;;9.67;92.83
3780;BME280;1905;52.482;9.802;2022-12-29T01:27:37;99734.34;;;9.68;92.98
3780;BME280;1905;52.482;9.802;2022-12-29T01:30:05;99726.38;;;9.69;92.38
3780;BME280;1905;52.482;9.802;2022-12-29T01:32:33;99710.56;;;9.69;92.70
3780;BME280;1905;52.482;9.802;2022-12-29T01:35:03;99715.91;;;9.68;93.43
3780;BME280;1905;52.482;9.802;2022-12-29T01:37:33;99729.09;;;9.68;92.55
3780;BME280;1905;52.482;9.802;2022-12-29T01:40:01;99715.84;;;9.69;93.08
3780;BME280;1905;52.482;9.802;2022-12-29T01:42:30;99711.31;;;9.71;92.79
3780;BME280;1905;52.482;9.802;2022-12-29T01:45:02;99698.72;;;9.76;93.22
3780;BME280;1905;52.482;9.802;2022-12-29T01:47:33;99707.66;;;9.74;92.61
3780;BME280;1905;52.482;9.802;2022-12-29T01:50:07;99708.69;;;9.71;92.78
3780;BME280;1905;52.482;9.802;2022-12-29T01:52:38;99710.22;;;9.75;92.90
3780;BME280;1905;52.482;9.802;2022-12-29T01:55:09;99706.63;;;9.76;92.64
3780;BME280;1905;52.482;9.802;2022-12-29T01:57:41;99710.22;;;9.75;93.15
3780;BME280;1905;52.482;9.802;2022-12-29T02:00:12;99700.72;;;9.73;93.69
3780;BME280;1905;52.482;9.802;2022-12-29T02:02:42;99705.97;;;9.73;93.38
3780;BME280;1905;52.482;9.802;2022-12-29T02:05:20;99697.97;;;9.74;93.00
3780;BME280;1905;52.482;9.802;2022-12-29T02:07:50;99697.97;;;9.74;93.50
3780;BME280;1905;52.482;9.802;2022-12-29T02:10:19;99690.81;;;9.76;92.60
3780;BME280;1905;52.482;9.802;2022-12-29T02:12:47;99693.63;;;9.73;93.61
3780;BME280;1905;52.482;9.802;2022-12-29T02:15:15;99689.13;;;9.75;92.85
3780;BME280;1905;52.482;9.802;2022-12-29T02:18:00;99683.09;;;9.73;93.59
3780;BME280;1905;52.482;9.802;2022-12-29T02:21:09;99684.03;;;9.72;92.74
3780;BME280;1905;52.482;9.802;2022-12-29T02:24:00;99680.81;;;9.67;93.55
3780;BME280;1905;52.482;9.802;2022-12-29T02:27:00;99671.78;;;9.71;93.00
3780;BME280;1905;52.482;9.802;2022-12-29T02:29:40;99666.59;;;9.70;93.95
3780;BME280;1905;52.482;9.802;2022-12-29T02:32:18;99663.13;;;9.69;94.09
3780;BME280;1905;52.482;9.802;2022-12-29T02:34:55;99664.63;;;9.73;93.25
3780;BME280;1905;52.482;9.802;2022-12-29T02:37:27;99666.34;;;9.74;93.10
3780;BME280;1905;52.482;9.802;2022-12-29T02:40:04;99670.59;;;9.77;93.62
3780;BME280;1905;52.482;9.802;2022-12-29T02:42:38;99668.06;;;9.75;93.62
3780;BME280;1905;52.482;9.802;2022-12-29T02:45:14;99672.13;;;9.81;93.00
3780;BME280;1905;52.482;9.802;2022-12-29T02:47:49;99674.75;;;9.81;93.68
3780;BME280;1905;52.482;9.802;2022-12-29T02:50:23;99666.94;;;9.79;92.95
3780;BME280;1905;52.482;9.802;2022-12-29T02:52:58;99658.84;;;9.82;92.83
3780;BME280;1905;52.482;9.802;2022-12-29T02:55:27;99662.22;;;9.84;93.00
3780;BME280;1905;52.482;9.802;2022-12-29T02:58:14;99662.91;;;9.88;93.57
3780;BME280;1905;52.482;9.802;2022-12-29T03:00:56;99648.81;;;9.89;93.24
3780;BME280;1905;52.482;9.802;2022-12-29T03:03:39;99637.22;;;9.91;93.10
3780;BME280;1905;52.482;9.802;2022-12-29T03:06:22;99646.25;;;9.87;93.36
3780;BME280;1905;52.482;9.802;2022-12-29T03:08:59;99649.63;;;9.89;93.07
3780;BME280;1905;52.482;9.802;2022-12-29T03:11:48;99656.63;;;9.90;93.95
3780;BME280;1905;52.482;9.802;2022-12-29T03:14:46;99640.78;;;9.90;93.72
3780;BME280;1905;52.482;9.802;2022-12-29T03:17:40;99652.88;;;9.94;93.43
3780;BME280;1905;52.482;9.802;2022-12-29T03:20:18;99650.81;;;9.99;93.75
3780;BME280;1905;52.482;9.802;2022-12-29T03:22:53;99631.41;;;10.00;93.93
3780;BME280;1905;52.482;9.802;2022-12-29T03:25:25;99619.00;;;10.02;93.68
3780;BME280;1905;52.482;9.802;2022-12-29T03:27:59;99620.69;;;10.03;94.47
3780;BME280;1905;52.482;9.802;2022-12-29T03:30:34;99614.47;;;10.04;93.89
3780;BME280;1905;52.482;9.802;2022-12-29T03:33:05;99624.09;;;10.05;94.21
3780;BME280;1905;52.482;9.802;2022-12-29T03:35:37;99606.22;;;10.10;93.44
3780;BME280;1905;52.482;9.802;2022-12-29T03:38:14;99615.03;;;10.09;93.60
3780;BME280;1905;52.482;9.802;2022-12-29T03:40:47;99610.38;;;10.14;93.45
3780;BME280;1905;52.482;9.802;2022-12-29T03:43:16;99609.63;;;10.12;94.16
3780;BME280;1905;52.482;9.802;2022-12-29T03:45:45;99593.63;;;10.15;93.65
3780;BME280;1905;52.482;9.802;2022-12-29T03:48:13;99597.94;;;10.16;93.63
3780;BME280;1905;52.482;9.802;2022-12-29T03:50:44;99594.38;;;10.18;94.13
3780;BME280;1905;52.482;9.802;2022-12-29T03:53:11;99594.28;;;10.19;93.30
3780;BME280;1905;52.482;9.802;2022-12-29T03:55:39;99590.53;;;10.23;93.89
3780;BME280;1905;52.482;9.802;2022-12-29T03:58:07;99597.69;;;10.21;93.61
3780;BME280;1905;52.482;9.802;2022-12-29T04:00:48;99571.13;;;10.24;93.03
3780;BME280;1905;52.482;9.802;2022-12-29T04:03:16;99576.28;;;10.26;93.81
3780;BME280;1905;52.482;9.802;2022-12-29T04:05:45;99586.84;;;10.26;93.29
3780;BME280;1905;52.482;9.802;2022-12-29T04:08:13;99583.09;;;10.30;93.10
3780;BME280;1905;52.482;9.802;2022-12-29T04:10:41;99588.19;;;10.33;92.93
3780;BME280;1905;52.482;9.802;2022-12-29T04:13:09;99586.13;;;10.38;92.50
3780;BME280;1905;52.482;9.802;2022-12-29T04:15:38;99585.34;;;10.36;92.15
3780;BME280;1905;52.482;9.802;2022-12-29T04:18:06;99585.28;;;10.37;92.36
3780;BME280;1905;52.482;9.802;2022-12-29T04:20:34;99584.22;;;10.40;92.23
3780;BME280;1905;52.482;9.802;2022-12-29T04:23:21;99588.66;;;10.39;92.72
3780;BME280;1905;52.482;9.802;2022-12-29T04:25:48;99575.47;;;10.39;92.50
3780;BME280;1905;52.482;9.802;2022-12-29T04:28:16;99593.56;;;10.45;92.55
3780;BME280;1905;52.482;9.802;2022-12-29T04:30:53;99579.34;;;10.48;92.39
3780;BME280;1905;52.482;9.802;2022-12-29T04:33:32;99589.78;;;10.49;91.34
3780;BME280;1905;52.482;9.802;2022-12-29T04:36:01;99588.84;;;10.50;91.55
3780;BME280;1905;52.482;9.802;2022-12-29T04:38:30;99585.09;;;10.54;92.01
3780;BME280;1905;52.482;9.802;2022-12-29T04:41:00;99591.19;;;10.55;91.28
3780;BME280;1905;52.482;9.802;2022-12-29T04:43:29;99575.19;;;10.58;91.73
3780;BME280;1905;52.482;9.802;2022-12-29T04:46:13;99580.66;;;10.55;91.82
3780;BME280;1905;52.482;9.802;2022-12-29T04:48:50;99574.44;;;10.56;91.84
3780;BME280;1905;52.482;9.802;2022-12-29T04:51:26;99580.28;;;10.61;91.24
3780;BME280;1905;52.482;9.802;2022-12-29T04:53:55;99576.72;;;10.62;92.00
3780;BME280;1905;52.482;9.802;2022-12-29T04:56:24;99572.91;;;10.66;91.69
3780;BME280;1905;52.482;9.802;2022-12-29T04:58:52;99584.25;;;10.68;91.05
3780;BME280;1905;52.482;9.802;2022-12-29T05:01:20;99579.06;;;10.66;91.05
3780;BME280;1905;52.482;9.802;2022-12-29T05:03:49;99570.19;;;10.67;90.98
3780;BME280;1905;52.482;9.802;2022-12-29T05:06:17;99567.38;;;10.70;91.23
3780;BME280;1905;52.482;9.802;2022-12-29T05:08:45;99574.25;;;10.73;90.82
3780;BME280;1905;52.482;9.802;2022-12-29T05:11:16;99563.69;;;10.73;90.47
3780;BME280;1905;52.482;9.802;2022-12-29T05:13:49;99560.09;;;10.74;91.06
3780;BME280;1905;52.482;9.802;2022-12-29T05:16:16;99554.81;;;10.74;90.60
3780;BME280;1905;52.482;9.802;2022-12-29T05:18:44;99549.34;;;10.77;90.75
3780;BME280;1905;52.482;9.802;2022-12-29T05:21:14;99558.13;;;10.77;90.94
3780;BME280;1905;52.482;9.802;2022-12-29T05:23:43;99552.72;;;10.79;90.90
3780;BME280;1905;52.482;9.802;2022-12-29T05:26:11;99549.34;;;10.77;90.35
3780;BME280;1905;52.482;9.802;2022-12-29T05:28:58;99554.44;;;10.80;90.15
3780;BME280;1905;52.482;9.802;2022-12-29T05:31:27;99537.72;;;10.80;90.39
3780;BME280;1905;52.482;9.802;2022-12-29T05:33:54;99535.00;;;10.81;90.17
3780;BME280;1905;52.482;9.802;2022-12-29T05:36:22;99538.41;;;10.83;90.30
3780;BME280;1905;52.482;9.802;2022-12-29T05:38:54;99539.13;;;10.85;89.63
3780;BME280;1905;52.482;9.802;2022-12-29T05:41:22;99542.81;;;10.83;89.81
3780;BME280;1905;52.482;9.802;2022-12-29T05:44:00;99554.25;;;10.83;90.46
3780;BME280;1905;52.482;9.802;2022-12-29T05:46:48;99558.28;;;10.89;89.91
3780;BME280;1905;52.482;9.802;2022-12-29T05:49:39;99555.72;;;10.87;90.84
3780;BME280;1905;52.482;9.802;2022-12-29T05:52:20;99555.72;;;10.87;91.23
3780;BME280;1905;52.482;9.802;2022-12-29T05:54:48;99553.38;;;10.83;91.91
3780;BME280;1905;52.482;9.802;2022-12-29T05:57:18;99558.38;;;10.87;91.77
3780;BME280;1905;52.482;9.802;2022-12-29T05:59:55;99548.97;;;10.83;93.12
3780;BME280;1905;52.482;9.802;2022-12-29T06:02:22;99566.28;;;10.87;92.49
3780;BME280;1905;52.482;9.802;2022-12-29T06:04:50;99571.78;;;10.84;92.88
3780;BME280;1905;52.482;9.802;2022-12-29T06:07:18;99562.91;;;10.85;93.50
3780;BME280;1905;52.482;9.802;2022-12-29T06:09:47;99553.19;;;10.86;93.06
3780;BME280;1905;52.482;9.802;2022-12-29T06:12:14;99558.28;;;10.89;92.63
3780;BME280;1905;52.482;9.802;2022-12-29T06:14:44;99554.06;;;10.86;93.20
3780;BME280;1905;52.482;9.802;2022-12-29T06:17:13;99553.19;;;10.86;92.60
3780;BME280;1905;52.482;9.802;2022-12-29T06:19:42;99554.97;;;10.85;92.79
3780;BME280;1905;52.482;9.802;2022-12-29T06:22:10;99538.19;;;10.86;92.56
3780;BME280;1905;52.482;9.802;2022-12-29T06:24:40;99543.47;;;10.86;92.42
3780;BME280;1905;52.482;9.802;2022-12-29T06:27:08;99553.09;;;10.87;92.51
3780;BME280;1905;52.482;9.802;2022-12-29T06:29:36;99547.91;;;10.86;92.73
3780;BME280;1905;52.482;9.802;2022-12-29T06:32:07;99540.09;;;10.84;93.66
3780;BME280;1905;52.482;9.802;2022-12-29T06:34:38;99544.53;;;10.84;93.13
3780;BME280;1905;52.482;9.802;2022-12-29T06:37:05;99530.59;;;10.82;93.94
3780;BME280;1905;52.482;9.802;2022-12-29T06:39:34;99527.09;;;10.81;93.41
3780;BME280;1905;52.482;9.802;2022-12-29T06:42:08;99527.84;;;10.83;93.31
3780;BME280;1905;52.482;9.802;2022-12-29T06:45:09;99522.75;;;10.80;93.34
3780;BME280;1905;52.482;9.802;2022-12-29T06:47:37;99529.72;;;10.81;93.91
3780;BME280;1905;52.482;9.802;2022-12-29T06:50:06;99530.84;;;10.77;93.59
3780;BME280;1905;52.482;9.802;2022-12-29T06:52:34;99533.84;;;10.85;93.36
3780;BME280;1905;52.482;9.802;2022-12-29T06:55:02;99530.34;;;10.85;93.93
3780;BME280;1905;52.482;9.802;2022-12-29T06:57:29;99520.84;;;10.82;93.48
3780;BME280;1905;52.482;9.802;2022-12-29T06:59:57;99525.06;;;10.85;94.00
3780;BME280;1905;52.482;9.802;2022-12-29T07:02:24;99518.13;;;10.84;93.40
3780;BME280;1905;52.482;9.802;2022-12-29T07:04:52;99523.59;;;10.81;94.02
3780;BME280;1905;52.482;9.802;2022-12-29T07:07:21;99520.28;;;10.77;93.92
3780;BME280;1905;52.482;9.802;2022-12-29T07:09:50;99518.38;;;10.79;94.08
3780;BME280;1905;52.482;9.802;2022-12-29T07:12:17;99521.69;;;10.83;93.34
3780;BME280;1905;52.482;9.802;2022-12-29T07:14:44;99551.72;;;10.82;93.11
3780;BME280;1905;52.482;9.802;2022-12-29T07:17:12;99622.63;;;10.88;93.27
3780;BME280;1905;52.482;9.802;2022-12-29T07:19:40;99637.81;;;10.84;93.65
3780;BME280;1905;52.482;9.802;2022-12-29T07:22:08;99624.13;;;10.77;93.25
3780;BME280;1905;52.482;9.802;2022-12-29T07:24:37;99630.81;;;10.69;93.69
3780;BME280;1905;52.482;9.802;2022-12-29T07:27:05;99651.19;;;10.67;93.61
3780;BME280;1905;52.482;9.802;2022-12-29T07:29:32;99640.06;;;10.62;94.03
3780;BME280;1905;52.482;9.802;2022-12-29T07:32:00;99651.28;;;10.65;94.38
3780;BME280;1905;52.482;9.802;2022-12-29T07:34:28;99647.03;;;10.63;94.49
3780;BME280;1905;52.482;9.802;2022-12-29T07:36:55;99641.94;;;10.60;94.73
3780;BME280;1905;52.482;9.802;2022-12-29T07:39:23;99631.38;;;10.60;94.20
3780;BME280;1905;52.482;9.802;2022-12-29T07:41:52;99652.50;;;10.60;94.21
3780;BME280;1905;52.482;9.802;2022-12-29T07:44:35;99652.50;;;10.60;94.08
3780;BME280;1905;52.482;9.802;2022-12-29T07:47:22;99652.50;;;10.60;94.03
3780;BME280;1905;52.482;9.802;2022-12-29T07:49:50;99652.78;;;10.55;93.47
3780;BME280;1905;52.482;9.802;2022-12-29T07:52:17;99651.16;;;10.53;93.88
3780;BME280;1905;52.482;9.802;2022-12-29T07:54:45;99653.81;;;10.53;93.67
3780;BME280;1905;52.482;9.802;2022-12-29T07:57:14;99654.94;;;10.49;93.72
3780;BME280;1905;52.482;9.802;2022-12-29T07:59:41;99671.63;;;10.49;94.02
3780;BME280;1905;52.482;9.802;2022-12-29T08:02:10;99669.09;;;10.48;93.48
3780;BME280;1905;52.482;9.802;2022-12-29T08:04:38;99662.94;;;10.47;94.15
3780;BME280;1905;52.482;9.802;2022-12-29T08:07:05;99669.09;;;10.48;94.38
3780;BME280;1905;52.482;9.802;2022-12-29T08:09:33;99671.16;;;10.43;93.81
3780;BME280;1905;52.482;9.802;2022-12-29T08:12:00;99673.03;;;10.41;93.96
3780;BME280;1905;52.482;9.802;2022-12-29T08:14:29;99674.72;;;10.42;93.38
3780;BME280;1905;52.482;9.802;2022-12-29T08:16:57;99683.59;;;10.41;93.29
3780;BME280;1905;52.482;9.802;2022-12-29T08:19:24;99678.50;;;10.38;93.65
3780;BME280;1905;52.482;9.802;2022-12-29T08:21:52;99676.97;;;10.34;93.25
3780;BME280;1905;52.482;9.802;2022-12-29T08:24:20;99678.84;;;10.32;93.64
3780;BME280;1905;52.482;9.802;2022-12-29T08:26:47;99687.88;;;10.28;93.50
3780;BME280;1905;52.482;9.802;2022-12-29T08:29:15;99684.56;;;10.24;94.11
3780;BME280;1905;52.482;9.802;2022-12-29T08:31:44;99681.25;;;10.21;93.71
3780;BME280;1905;52.482;9.802;2022-12-29T08:34:12;99681.44;;;10.18;93.75
3780;BME280;1905;52.482;9.802;2022-12-29T08:36:39;99684.34;;;10.13;94.36
3780;BME280;1905;52.482;9.802;2022-12-29T08:39:07;99680.06;;;10.10;94.12
3780;BME280;1905;52.482;9.802;2022-12-29T08:41:34;99690.78;;;10.07;94.11
3780;BME280;1905;52.482;9.802;2022-12-29T08:44:02;99697.09;;;10.05;94.19
3780;BME280;1905;52.482;9.802;2022-12-29T08:46:29;99698.28;;;9.99;94.28
3780;BME280;1905;52.482;9.802;2022-12-29T08:48:58;99688.00;;;9.95;93.47
3780;BME280;1905;52.482;9.802;2022-12-29T08:51:26;99696.09;;;9.92;92.99
3780;BME280;1905;52.482;9.802;2022-12-29T08:53:53;99699.66;;;9.91;93.78
3780;BME280;1905;52.482;9.802;2022-12-29T08:56:21;99702.19;;;9.92;92.73
3780;BME280;1905;52.482;9.802;2022-12-29T08:58:53;99710.66;;;9.83;93.27
3780;BME280;1905;52.482;9.802;2022-12-29T09:01:22;99711.31;;;9.87;93.55
3780;BME280;1905;52.482;9.802;2022-12-29T09:03:49;99715.13;;;9.81;92.92
3780;BME280;1905;52.482;9.802;2022-12-29T09:06:38;99721.78;;;9.88;92.97
3780;BME280;1905;52.482;9.802;2022-12-29T09:09:06;99716.84;;;9.82;92.68
3780;BME280;1905;52.482;9.802;2022-12-29T09:11:34;99715.34;;;9.78;93.29
3780;BME280;1905;52.482;9.802;2022-12-29T09:14:01;99714.66;;;9.75;93.07
3780;BME280;1905;52.482;9.802;2022-12-29T09:16:29;99719.91;;;9.75;93.23
3780;BME280;1905;52.482;9.802;2022-12-29T09:18:56;99714.81;;;9.72;93.11
3780;BME280;1905;52.482;9.802;2022-12-29T09:21:24;99706.16;;;9.70;93.22
3780;BME280;1905;52.482;9.802;2022-12-29T09:23:53;99716.75;;;9.68;93.07
3780;BME280;1905;52.482;9.802;2022-12-29T09:26:20;99718.53;;;9.68;93.77
3780;BME280;1905;52.482;9.802;2022-12-29T09:28:48;99714.91;;;9.70;92.74
3780;BME280;1905;52.482;9.802;2022-12-29T09:31:16;99717.72;;;9.67;92.62
3780;BME280;1905;52.482;9.802;2022-12-29T09:33:43;99715.16;;;9.66;93.22
3780;BME280;1905;52.482;9.802;2022-12-29T09:36:11;99712.44;;;9.67;92.78
3780;BME280;1905;52.482;9.802;2022-12-29T09:38:38;99714.47;;;9.62;93.45
3780;BME280;1905;52.482;9.802;2022-12-29T09:41:13;99720.34;;;9.67;92.96
3780;BME280;1905;52.482;9.802;2022-12-29T09:43:52;99713.38;;;9.66;91.66
3780;BME280;1905;52.482;9.802;2022-12-29T09:46:25;99719.56;;;9.65;92.31
3780;BME280;1905;52.482;9.802;2022-12-29T09:49:01;99719.66;;;9.64;91.94
3780;BME280;1905;52.482;9.802;2022-12-29T09:51:32;99719.56;;;9.65;91.96
3780;BME280;1905;52.482;9.802;2022-12-29T09:54:04;99714.28;;;9.65;92.23
3780;BME280;1905;52.482;9.802;2022-12-29T09:56:44;99719.72;;;9.62;92.02
3780;BME280;1905;52.482;9.802;2022-12-29T09:59:16;99717.28;;;9.59;92.23
3780;BME280;1905;52.482;9.802;2022-12-29T10:01:51;99726.88;;;9.60;92.57
3780;BME280;1905;52.482;9.802;2022-12-29T10:04:19;99725.19;;;9.59;92.57
3780;BME280;1905;52.482;9.802;2022-12-29T10:06:53;99715.31;;;9.63;92.78
3780;BME280;1905;52.482;9.802;2022-12-29T10:09:46;99718.22;;;9.58;92.91
3780;BME280;1905;52.482;9.802;2022-12-29T10:12:26;99712.19;;;9.56;93.16
3780;BME280;1905;52.482;9.802;2022-12-29T10:15:02;99717.63;;;9.53;93.44
3780;BME280;1905;52.482;9.802;2022-12-29T10:17:38;99708.00;;;9.52;93.76
3780;BME280;1905;52.482;9.802;2022-12-29T10:20:21;99702.56;;;9.55;93.27
3780;BME280;1905;52.482;9.802;2022-12-29T10:23:04;99700.34;;;9.63;93.94
3780;BME280;1905;52.482;9.802;2022-12-29T10:25:41;99700.34;;;9.63;92.80
3780;BME280;1905;52.482;9.802;2022-12-29T10:28:17;99700.34;;;9.63;93.40
3780;BME280;1905;52.482;9.802;2022-12-29T10:30:48;99693.31;;;9.64;93.38
3780;BME280;1905;52.482;9.802;2022-12-29T10:33:18;99693.22;;;9.65;94.08
3780;BME280;1905;52.482;9.802;2022-12-29T10:35:47;99687.59;;;9.71;93.30
3780;BME280;1905;52.482;9.802;2022-12-29T10:38:21;99692.69;;;9.74;93.42
3780;BME280;1905;52.482;9.802;2022-12-29T10:40:53;99683.69;;;9.78;93.62
3780;BME280;1905;52.482;9.802;2022-12-29T10:43:25;99695.16;;;9.77;93.75
3780;BME280;1905;52.482;9.802;2022-12-29T10:45:56;99688.59;;;9.84;93.38
3780;BME280;1905;52.482;9.802;2022-12-29T10:48:27;99685.97;;;9.84;92.63
3780;BME280;1905;52.482;9.802;2022-12-29T10:50:59;99679.59;;;9.88;93.38
3780;BME280;1905;52.482;9.802;2022-12-29T10:53:34;99677.53;;;9.93;92.94
3780;BME280;1905;52.482;9.802;2022-12-29T10:56:14;99685.34;;;9.95;93.02
3780;BME280;1905;52.482;9.802;2022-12-29T10:58:47;99672.09;;;9.96;93.03
3780;BME280;1905;52.482;9.802;2022-12-29T11:01:17;99678.97;;;9.99;92.88
3780;BME280;1905;52.482;9.802;2022-12-29T11:03:53;99675.31;;;10.01;92.56
3780;BME280;1905;52.482;9.802;2022-12-29T11:06:27;99678.53;;;10.06;92.11
3780;BME280;1905;52.482;9.802;2022-12-29T11:08:57;99687.03;;;10.11;91.16
3780;BME280;1905;52.482;9.802;2022-12-29T11:11:28;99683.63;;;10.09;91.41
3780;BME280;1905;52.482;9.802;2022-12-29T11:14:11;99687.88;;;10.12;90.29
3780;BME280;1905;52.482;9.802;2022-12-29T11:16:40;99686.88;;;10.14;89.93
3780;BME280;1905;52.482;9.802;2022-12-29T11:19:21;99697.56;;;10.11;90.19
3780;BME280;1905;52.482;9.802;2022-12-29T11:21:49;99695.75;;;10.13;89.56
3780;BME280;1905;52.482;9.802;2022-12-29T11:24:22;99703.47;;;10.16;90.01
3780;BME280;1905;52.482;9.802;2022-12-29T11:26:51;99691.22;;;10.15;88.96
3780;BME280;1905;52.482;9.802;2022-12-29T11:29:26;99697.25;;;10.18;89.21
3780;BME280;1905;52.482;9.802;2022-12-29T11:31:56;99705.19;;;10.18;89.60
3780;BME280;1905;52.482;9.802;2022-12-29T11:34:29;99686.72;;;10.18;88.86
3780;BME280;1905;52.482;9.802;2022-12-29T11:37:01;99689.00;;;10.24;88.95
3780;BME280;1905;52.482;9.802;2022-12-29T11:39:36;99693.53;;;10.22;88.58
3780;BME280;1905;52.482;9.802;2022-12-29T11:42:06;99707.47;;;10.24;88.79
3780;BME280;1905;52.482;9.802;2022-12-29T11:44:44;99705.59;;;10.26;88.70
3780;BME280;1905;52.482;9.802;2022-12-29T11:47:23;99714.44;;;10.25;88.58
3780;BME280;1905;52.482;9.802;2022-12-29T11:49:55;99718.72;;;10.27;88.91
3780;BME280;1905;52.482;9.802;2022-12-29T11:52:26;99720.50;;;10.27;87.65
3780;BME280;1905;52.482;9.802;2022-12-29T11:54:56;99730.09;;;10.28;87.37
3780;BME280;1905;52.482;9.802;2022-12-29T11:57:24;99721.94;;;10.32;87.21
3780;BME280;1905;52.482;9.802;2022-12-29T11:59:54;99734.25;;;10.32;86.79
3780;BME280;1905;52.482;9.802;2022-12-29T12:02:30;99725.59;;;10.30;87.76
3780;BME280;1905;52.482;9.802;2022-12-29T12:05:17;99725.31;;;10.34;87.08
3780;BME280;1905;52.482;9.802;2022-12-29T12:07:50;99740.13;;;10.37;86.60
3780;BME280;1905;52.482;9.802;2022-12-29T12:10:23;99734.84;;;10.37;87.13
3780;BME280;1905;52.482;9.802;2022-12-29T12:12:57;99726.16;;;10.35;87.78
3780;BME280;1905;52.482;9.802;2022-12-29T12:15:31;99731.19;;;10.39;87.40
3780;BME280;1905;52.482;9.802;2022-12-29T12:18:16;99737.88;;;10.45;86.70
3780;BME280;1905;52.482;9.802;2022-12-29T12:20:50;99731.69;;;10.46;86.99
3780;BME280;1905;52.482;9.802;2022-12-29T12:23:27;99736.84;;;10.47;86.70
3780;BME280;1905;52.482;9.802;2022-12-29T12:26:02;99734.91;;;10.51;86.73
3780;BME280;1905;52.482;9.802;2022-12-29T12:28:39;99740.94;;;10.53;87.83
3780;BME280;1905;52.482;9.802;2022-12-29T12:31:17;99738.13;;;10.56;86.33
3780;BME280;1905;52.482;9.802;2022-12-29T12:33:47;99723.88;;;10.58;85.81
3780;BME280;1905;52.482;9.802;2022-12-29T12:36:30;99735.13;;;10.62;86.89
3780;BME280;1905;52.482;9.802;2022-12-29T12:39:05;99740.41;;;10.62;85.64
3780;BME280;1905;52.482;9.802;2022-12-29T12:41:47;99737.47;;;10.66;85.24
3780;BME280;1905;52.482;9.802;2022-12-29T12:44:25;99743.78;;;10.64;84.64
3780;BME280;1905;52.482;9.802;2022-12-29T12:47:09;99746.44;;;10.64;85.17
3780;BME280;1905;52.482;9.802;2022-12-29T12:52:49;99741.72;;;10.69;85.10
3780;BME280;1905;52.482;9.802;2022-12-29T12:55:35;99738.16;;;10.70;85.16
3780;BME280;1905;52.482;9.802;2022-12-29T12:58:15;99736.44;;;10.69;85.83
3780;BME280;1905;52.482;9.802;2022-12-29T13:00:55;99739.84;;;10.71;84.89
3780;BME280;1905;52.482;9.802;2022-12-29T13:03:32;99743.25;;;10.73;85.55
3780;BME280;1905;52.482;9.802;2022-12-29T13:06:16;99752.78;;;10.75;85.43
3780;BME280;1905;52.482;9.802;2022-12-29T13:09:08;99744.94;;;10.74;84.92
3780;BME280;1905;52.482;9.802;2022-12-29T13:11:51;99763.59;;;10.71;84.71
3780;BME280;1905;52.482;9.802;2022-12-29T13:14:35;99761.81;;;10.71;86.16
3780;BME280;1905;52.482;9.802;2022-12-29T13:17:14;99770.50;;;10.73;85.46
3780;BME280;1905;52.482;9.802;2022-12-29T13:19:53;99759.94;;;10.73;84.84
3780;BME280;1905;52.482;9.802;2022-12-29T13:22:28;99756.34;;;10.74;83.25
3780;BME280;1905;52.482;9.802;2022-12-29T13:25:13;99763.91;;;10.81;84.69
3780;BME280;1905;52.482;9.802;2022-12-29T13:27:49;99769.50;;;10.76;83.99
3780;BME280;1905;52.482;9.802;2022-12-29T13:30:20;99775.53;;;10.78;84.02
3780;BME280;1905;52.482;9.802;2022-12-29T13:32:55;99775.59;;;10.76;83.67
3780;BME280;1905;52.482;9.802;2022-12-29T13:35:41;99771.34;;;10.74;82.33
3780;BME280;1905;52.482;9.802;2022-12-29T13:38:17;99780.88;;;10.76;83.15
3780;BME280;1905;52.482;9.802;2022-12-29T13:40:50;99792.47;;;10.74;83.18
3780;BME280;1905;52.482;9.802;2022-12-29T13:43:21;99797.56;;;10.77;83.74
3780;BME280;1905;52.482;9.802;2022-12-29T13:46:06;99797.22;;;10.83;84.53
3780;BME280;1905;52.482;9.802;2022-12-29T13:48:39;99798.44;;;10.77;83.85
3780;BME280;1905;52.482;9.802;2022-12-29T13:51:11;99797.41;;;10.80;83.42
3780;BME280;1905;52.482;9.802;2022-12-29T13:53:54;99808.53;;;10.85;84.27
3780;BME280;1905;52.482;9.802;2022-12-29T13:56:26;99824.38;;;10.85;82.11
3780;BME280;1905;52.482;9.802;2022-12-29T13:59:05;99820.06;;;10.84;82.17
3780;BME280;1905;52.482;9.802;2022-12-29T14:01:41;99837.94;;;10.79;82.41